EWG1AL EDDN-ESGG
Flight info
| Callsign | EWG1AL |
|---|---|
| Flight time | 1h 18m |
| Altitude | 38000 |
| Route | ERETO1G/28 ERETO DCT LONLI M726 LASGA DCT EMBOX M726 BKD/N0446F370 DCT NOBRI DCT NEDIK/N0446F380 DCT ROKAM L997 RISMA |
| Aircraft | A319/M-SDE3FGHIRWY/LB1 |
Departure
| Time | 2026-05-07 16:28 |
|---|---|
| Airport | Nuremberg Airport (EDDN) |
Arrival
| Time | 2026-05-07 17:47 |
|---|---|
| Airport | Göteborg Landvetter Airport (ESGG) |
| Time | Latitude | Longitude | Altitude | Speed | Heading |
|---|---|---|---|---|---|
| 2026-05-07 16:00 | 49.49474 | 11.08166 | 1029 ft | 0 kts | 188° |
| 2026-05-07 16:21 | 49.49479 | 11.08167 | 1029 ft | 3 kts | 188° |
| 2026-05-07 16:21 | 49.49505 | 11.08173 | 1029 ft | 3 kts | 189° |
| 2026-05-07 16:21 | 49.49527 | 11.08177 | 1029 ft | 4 kts | 165° |
| 2026-05-07 16:22 | 49.49546 | 11.08155 | 1026 ft | 4 kts | 106° |
| 2026-05-07 16:22 | 49.49549 | 11.08139 | 1029 ft | 3 kts | 98° |
| 2026-05-07 16:24 | 49.49547 | 11.08158 | 1027 ft | 5 kts | 98° |
| 2026-05-07 16:24 | 49.49539 | 11.08237 | 1029 ft | 10 kts | 98° |
| 2026-05-07 16:24 | 49.49555 | 11.08348 | 1029 ft | 13 kts | 33° |
| 2026-05-07 16:25 | 49.49613 | 11.08453 | 1027 ft | 17 kts | 92° |
| 2026-05-07 16:25 | 49.49593 | 11.08653 | 1030 ft | 21 kts | 99° |
| 2026-05-07 16:25 | 49.49569 | 11.08883 | 1035 ft | 22 kts | 99° |
| 2026-05-07 16:25 | 49.49549 | 11.09114 | 1042 ft | 21 kts | 98° |
| 2026-05-07 16:26 | 49.49531 | 11.09331 | 1049 ft | 20 kts | 84° |
| 2026-05-07 16:26 | 49.49600 | 11.09504 | 1053 ft | 19 kts | 53° |
| 2026-05-07 16:26 | 49.49689 | 11.09558 | 1056 ft | 0 kts | 322° |
| 2026-05-07 16:26 | 49.49693 | 11.09549 | 1056 ft | 3 kts | 301° |
| 2026-05-07 16:27 | 49.49704 | 11.09491 | 1056 ft | 0 kts | 280° |
| 2026-05-07 16:27 | 49.49708 | 11.09455 | 1054 ft | 12 kts | 278° |
| 2026-05-07 16:27 | 49.49749 | 11.09019 | 1044 ft | 72 kts | 278° |
| 2026-05-07 16:27 | 49.49855 | 11.07960 | 1033 ft | 126 kts | 278° |
| 2026-05-07 16:28 | 49.49998 | 11.06447 | 1354 ft | 142 kts | 278° |
| 2026-05-07 16:28 | 49.50167 | 11.05062 | 2345 ft | 124 kts | 282° |
| 2026-05-07 16:28 | 49.50354 | 11.03742 | 2679 ft | 134 kts | 284° |
| 2026-05-07 16:28 | 49.50576 | 11.02221 | 2865 ft | 159 kts | 282° |
| 2026-05-07 16:29 | 49.50723 | 11.00282 | 2839 ft | 204 kts | 274° |
| 2026-05-07 16:29 | 49.50789 | 10.97954 | 3249 ft | 228 kts | 274° |
| 2026-05-07 16:29 | 49.50989 | 10.95487 | 4171 ft | 232 kts | 282° |
| 2026-05-07 16:29 | 49.51591 | 10.93255 | 5421 ft | 223 kts | 303° |
| 2026-05-07 16:30 | 49.52739 | 10.91655 | 6298 ft | 236 kts | 333° |
| 2026-05-07 16:30 | 49.54448 | 10.91193 | 6746 ft | 266 kts | 359° |
| 2026-05-07 16:30 | 49.56317 | 10.91443 | 7373 ft | 278 kts | 6° |
| 2026-05-07 16:30 | 49.58249 | 10.91880 | 8287 ft | 283 kts | 6° |
| 2026-05-07 16:31 | 49.60220 | 10.92277 | 9209 ft | 288 kts | 4° |
| 2026-05-07 16:31 | 49.62232 | 10.92567 | 10099 ft | 293 kts | 2° |
| 2026-05-07 16:31 | 49.64330 | 10.92758 | 10548 ft | 313 kts | 0° |
| 2026-05-07 16:31 | 49.66582 | 10.92872 | 10926 ft | 332 kts | 360° |
| 2026-05-07 16:32 | 49.68915 | 10.93333 | 11613 ft | 342 kts | 12° |
| 2026-05-07 16:32 | 49.71160 | 10.94658 | 12370 ft | 350 kts | 27° |
| 2026-05-07 16:32 | 49.73166 | 10.96840 | 13150 ft | 356 kts | 39° |
| 2026-05-07 16:32 | 49.75069 | 10.99318 | 13916 ft | 360 kts | 36° |
| 2026-05-07 16:33 | 49.77260 | 11.01192 | 14583 ft | 362 kts | 22° |
| 2026-05-07 16:33 | 49.79560 | 11.02815 | 15319 ft | 365 kts | 22° |
| 2026-05-07 16:33 | 49.81883 | 11.04452 | 16047 ft | 368 kts | 22° |
| 2026-05-07 16:33 | 49.84227 | 11.06101 | 16744 ft | 372 kts | 22° |
| 2026-05-07 16:34 | 49.86592 | 11.07767 | 17421 ft | 375 kts | 22° |
| 2026-05-07 16:34 | 49.88979 | 11.09454 | 18098 ft | 379 kts | 22° |
| 2026-05-07 16:34 | 49.91391 | 11.11162 | 18716 ft | 382 kts | 22° |
| 2026-05-07 16:34 | 49.93819 | 11.12886 | 19321 ft | 386 kts | 23° |
| 2026-05-07 16:35 | 49.96272 | 11.14629 | 19934 ft | 389 kts | 23° |
| 2026-05-07 16:35 | 49.98739 | 11.16385 | 20533 ft | 392 kts | 23° |
| 2026-05-07 16:35 | 50.01230 | 11.18169 | 21151 ft | 396 kts | 23° |
| 2026-05-07 16:35 | 50.03744 | 11.19968 | 21748 ft | 399 kts | 23° |
| 2026-05-07 16:36 | 50.06329 | 11.21568 | 22316 ft | 401 kts | 15° |
| 2026-05-07 16:36 | 50.09064 | 11.22485 | 22883 ft | 403 kts | 5° |
| 2026-05-07 16:36 | 50.11865 | 11.22680 | 23445 ft | 404 kts | 358° |
| 2026-05-07 16:36 | 50.14687 | 11.22673 | 23941 ft | 408 kts | 358° |
| 2026-05-07 16:37 | 50.17539 | 11.22677 | 24402 ft | 411 kts | 358° |
| 2026-05-07 16:37 | 50.20408 | 11.22693 | 24855 ft | 414 kts | 358° |
| 2026-05-07 16:37 | 50.23303 | 11.22719 | 25309 ft | 418 kts | 359° |
| 2026-05-07 16:37 | 50.26188 | 11.22746 | 25748 ft | 420 kts | 359° |
| 2026-05-07 16:38 | 50.29124 | 11.22770 | 26187 ft | 424 kts | 358° |
| 2026-05-07 16:38 | 50.32086 | 11.22789 | 26611 ft | 427 kts | 358° |
| 2026-05-07 16:38 | 50.35069 | 11.22805 | 27041 ft | 430 kts | 358° |
| 2026-05-07 16:38 | 50.38069 | 11.22854 | 27478 ft | 434 kts | 360° |
| 2026-05-07 16:39 | 50.41096 | 11.23008 | 27920 ft | 437 kts | 1° |
| 2026-05-07 16:39 | 50.44151 | 11.23236 | 28338 ft | 441 kts | 1° |
| 2026-05-07 16:39 | 50.47221 | 11.23497 | 28758 ft | 444 kts | 1° |
| 2026-05-07 16:39 | 50.50318 | 11.23762 | 29179 ft | 447 kts | 1° |
| 2026-05-07 16:40 | 50.53441 | 11.24014 | 29581 ft | 450 kts | 1° |
| 2026-05-07 16:40 | 50.56582 | 11.24247 | 29972 ft | 453 kts | 1° |
| 2026-05-07 16:40 | 50.59742 | 11.24469 | 30321 ft | 456 kts | 1° |
| 2026-05-07 16:40 | 50.62934 | 11.24683 | 30641 ft | 459 kts | 0° |
| 2026-05-07 16:41 | 50.66135 | 11.24894 | 30949 ft | 462 kts | 0° |
| 2026-05-07 16:41 | 50.69357 | 11.25112 | 31261 ft | 465 kts | 0° |
| 2026-05-07 16:41 | 50.72599 | 11.25337 | 31566 ft | 468 kts | 0° |
| 2026-05-07 16:41 | 50.75845 | 11.25564 | 31911 ft | 469 kts | 0° |
| 2026-05-07 16:42 | 50.79065 | 11.25792 | 32348 ft | 468 kts | 0° |
| 2026-05-07 16:42 | 50.82317 | 11.26030 | 32771 ft | 468 kts | 0° |
| 2026-05-07 16:42 | 50.85568 | 11.26267 | 33191 ft | 467 kts | 0° |
| 2026-05-07 16:42 | 50.88813 | 11.26501 | 33614 ft | 467 kts | 360° |
| 2026-05-07 16:43 | 50.92063 | 11.26731 | 34039 ft | 467 kts | 360° |
| 2026-05-07 16:43 | 50.95305 | 11.26958 | 34382 ft | 467 kts | 360° |
| 2026-05-07 16:43 | 50.98555 | 11.27186 | 34723 ft | 467 kts | 0° |
| 2026-05-07 16:43 | 51.01805 | 11.27416 | 35052 ft | 468 kts | 0° |
| 2026-05-07 16:44 | 51.05062 | 11.27645 | 35372 ft | 468 kts | 0° |
| 2026-05-07 16:44 | 51.08319 | 11.27871 | 35671 ft | 469 kts | 0° |
| 2026-05-07 16:44 | 51.11575 | 11.28096 | 35972 ft | 469 kts | 0° |
| 2026-05-07 16:44 | 51.14844 | 11.28328 | 36271 ft | 470 kts | 0° |
| 2026-05-07 16:45 | 51.18108 | 11.28564 | 36563 ft | 470 kts | 0° |
| 2026-05-07 16:45 | 51.21386 | 11.28806 | 36839 ft | 471 kts | 0° |
| 2026-05-07 16:45 | 51.24655 | 11.29047 | 37183 ft | 471 kts | 0° |
| 2026-05-07 16:45 | 51.27936 | 11.29286 | 37516 ft | 472 kts | 0° |
| 2026-05-07 16:46 | 51.31213 | 11.29521 | 37847 ft | 472 kts | 0° |
| 2026-05-07 16:46 | 51.34503 | 11.29753 | 38040 ft | 473 kts | 0° |
| 2026-05-07 16:46 | 51.37782 | 11.29982 | 38075 ft | 473 kts | 0° |
| 2026-05-07 16:47 | 51.44350 | 11.30446 | 38074 ft | 472 kts | 0° |
| 2026-05-07 16:47 | 51.50871 | 11.30923 | 38074 ft | 472 kts | 0° |
| 2026-05-07 16:48 | 51.57433 | 11.31409 | 38083 ft | 472 kts | 0° |
| 2026-05-07 16:48 | 51.63989 | 11.31887 | 38080 ft | 472 kts | 0° |
| 2026-05-07 16:49 | 51.70547 | 11.32368 | 38082 ft | 472 kts | 0° |
| 2026-05-07 16:49 | 51.76047 | 11.32773 | 38082 ft | 472 kts | 0° |
| 2026-05-07 16:50 | 51.82611 | 11.33259 | 38085 ft | 472 kts | 0° |
| 2026-05-07 16:50 | 51.89132 | 11.33749 | 38086 ft | 472 kts | 0° |
| 2026-05-07 16:51 | 51.95699 | 11.34229 | 38087 ft | 472 kts | 0° |
| 2026-05-07 16:51 | 52.02265 | 11.34706 | 38083 ft | 473 kts | 0° |
| 2026-05-07 16:52 | 52.08839 | 11.35345 | 38083 ft | 474 kts | 3° |
| 2026-05-07 16:52 | 52.15391 | 11.36626 | 38082 ft | 475 kts | 6° |
| 2026-05-07 16:53 | 52.21937 | 11.38126 | 38085 ft | 475 kts | 5° |
| 2026-05-07 16:53 | 52.28500 | 11.39524 | 38084 ft | 475 kts | 5° |
| 2026-05-07 16:54 | 52.35053 | 11.40802 | 38086 ft | 475 kts | 4° |
| 2026-05-07 16:54 | 52.41613 | 11.42071 | 38088 ft | 475 kts | 4° |
| 2026-05-07 16:55 | 52.48176 | 11.43378 | 38088 ft | 475 kts | 5° |
| 2026-05-07 16:55 | 52.54737 | 11.44710 | 38091 ft | 475 kts | 5° |
| 2026-05-07 16:56 | 52.61289 | 11.46040 | 38088 ft | 475 kts | 5° |
| 2026-05-07 16:56 | 52.71135 | 11.48024 | 38092 ft | 475 kts | 5° |
| 2026-05-07 16:57 | 52.77689 | 11.49356 | 38092 ft | 475 kts | 5° |
| 2026-05-07 16:57 | 52.84242 | 11.50689 | 38086 ft | 475 kts | 4° |
| 2026-05-07 16:58 | 52.90800 | 11.52024 | 38091 ft | 474 kts | 4° |
| 2026-05-07 16:58 | 52.97349 | 11.53362 | 38093 ft | 474 kts | 5° |
| 2026-05-07 16:59 | 53.03904 | 11.54717 | 38084 ft | 474 kts | 4° |
| 2026-05-07 16:59 | 53.10453 | 11.56073 | 38083 ft | 474 kts | 4° |
| 2026-05-07 17:00 | 53.16961 | 11.57417 | 38079 ft | 474 kts | 4° |
| 2026-05-07 17:00 | 53.20276 | 11.58100 | 37838 ft | 474 kts | 4° |
| 2026-05-07 17:00 | 53.23549 | 11.58775 | 37853 ft | 474 kts | 4° |
| 2026-05-07 17:01 | 53.29991 | 11.60902 | 37857 ft | 476 kts | 10° |
| 2026-05-07 17:01 | 53.36458 | 11.63334 | 37859 ft | 476 kts | 10° |
| 2026-05-07 17:02 | 53.42918 | 11.65758 | 37869 ft | 476 kts | 10° |
| 2026-05-07 17:02 | 53.49384 | 11.68182 | 37875 ft | 476 kts | 10° |
| 2026-05-07 17:03 | 53.55854 | 11.70622 | 37885 ft | 476 kts | 10° |
| 2026-05-07 17:03 | 53.62310 | 11.73067 | 37893 ft | 476 kts | 10° |
| 2026-05-07 17:04 | 53.68762 | 11.75519 | 37902 ft | 475 kts | 10° |
| 2026-05-07 17:04 | 53.75220 | 11.77975 | 37923 ft | 475 kts | 10° |
| 2026-05-07 17:05 | 53.81664 | 11.80437 | 37966 ft | 475 kts | 10° |
| 2026-05-07 17:05 | 53.88104 | 11.82906 | 37996 ft | 474 kts | 10° |
| 2026-05-07 17:06 | 53.94542 | 11.85370 | 38014 ft | 474 kts | 10° |
| 2026-05-07 17:06 | 54.00967 | 11.87852 | 38012 ft | 473 kts | 10° |
| 2026-05-07 17:07 | 54.07385 | 11.90338 | 38005 ft | 473 kts | 10° |
| 2026-05-07 17:07 | 54.13757 | 11.92814 | 37986 ft | 472 kts | 10° |
| 2026-05-07 17:08 | 54.20164 | 11.95313 | 37964 ft | 472 kts | 10° |
| 2026-05-07 17:08 | 54.26562 | 11.97817 | 37957 ft | 472 kts | 10° |
| 2026-05-07 17:09 | 54.32957 | 12.00328 | 37965 ft | 471 kts | 11° |
| 2026-05-07 17:09 | 54.39345 | 12.02833 | 37968 ft | 471 kts | 10° |
| 2026-05-07 17:10 | 54.45730 | 12.05341 | 37973 ft | 471 kts | 11° |
| 2026-05-07 17:10 | 54.52178 | 12.06713 | 37977 ft | 466 kts | 359° |
| 2026-05-07 17:11 | 54.58655 | 12.07108 | 37978 ft | 466 kts | 359° |
| 2026-05-07 17:11 | 54.65134 | 12.07517 | 37986 ft | 466 kts | 359° |
| 2026-05-07 17:12 | 54.71609 | 12.07914 | 37988 ft | 466 kts | 359° |
| 2026-05-07 17:12 | 54.78086 | 12.08322 | 37994 ft | 465 kts | 359° |
| 2026-05-07 17:13 | 54.84560 | 12.08739 | 38001 ft | 465 kts | 359° |
| 2026-05-07 17:13 | 54.91032 | 12.09152 | 38003 ft | 465 kts | 359° |
| 2026-05-07 17:14 | 54.97494 | 12.09560 | 38008 ft | 465 kts | 359° |
| 2026-05-07 17:14 | 55.03957 | 12.09960 | 38013 ft | 465 kts | 359° |
| 2026-05-07 17:15 | 55.10419 | 12.10378 | 38014 ft | 464 kts | 359° |
| 2026-05-07 17:15 | 55.16873 | 12.10793 | 38017 ft | 464 kts | 359° |
| 2026-05-07 17:16 | 55.23288 | 12.11202 | 38027 ft | 464 kts | 359° |
| 2026-05-07 17:16 | 55.29745 | 12.11618 | 38058 ft | 464 kts | 359° |
| 2026-05-07 17:17 | 55.36192 | 12.12030 | 38094 ft | 464 kts | 359° |
| 2026-05-07 17:17 | 55.42647 | 12.12431 | 38119 ft | 464 kts | 359° |
| 2026-05-07 17:18 | 55.49100 | 12.12853 | 38157 ft | 464 kts | 359° |
| 2026-05-07 17:18 | 55.55552 | 12.13282 | 38155 ft | 464 kts | 359° |
| 2026-05-07 17:19 | 55.61997 | 12.13707 | 38155 ft | 464 kts | 359° |
| 2026-05-07 17:19 | 55.68450 | 12.14127 | 38156 ft | 464 kts | 359° |
| 2026-05-07 17:20 | 55.71672 | 12.14337 | 38019 ft | 462 kts | 1° |
| 2026-05-07 17:20 | 55.74852 | 12.14546 | 38117 ft | 454 kts | 1° |
| 2026-05-07 17:20 | 55.81138 | 12.14961 | 38072 ft | 451 kts | 1° |
| 2026-05-07 17:21 | 55.87403 | 12.15375 | 38054 ft | 450 kts | 1° |
| 2026-05-07 17:21 | 55.93662 | 12.15787 | 38024 ft | 450 kts | 1° |
| 2026-05-07 17:22 | 55.99921 | 12.16196 | 38024 ft | 450 kts | 1° |
| 2026-05-07 17:22 | 56.06179 | 12.16614 | 38002 ft | 450 kts | 1° |
| 2026-05-07 17:23 | 56.09258 | 12.16821 | 37609 ft | 448 kts | 1° |
| 2026-05-07 17:23 | 56.12371 | 12.17033 | 37102 ft | 447 kts | 1° |
| 2026-05-07 17:23 | 56.15473 | 12.17244 | 36585 ft | 445 kts | 1° |
| 2026-05-07 17:23 | 56.18568 | 12.17453 | 36061 ft | 443 kts | 1° |
| 2026-05-07 17:24 | 56.21637 | 12.17660 | 35543 ft | 441 kts | 1° |
| 2026-05-07 17:24 | 56.24695 | 12.17867 | 35011 ft | 439 kts | 1° |
| 2026-05-07 17:24 | 56.27742 | 12.18073 | 34480 ft | 437 kts | 1° |
| 2026-05-07 17:24 | 56.30768 | 12.18234 | 33955 ft | 434 kts | 358° |
| 2026-05-07 17:25 | 56.33747 | 12.17768 | 33491 ft | 427 kts | 351° |
| 2026-05-07 17:25 | 56.36672 | 12.16940 | 32967 ft | 424 kts | 351° |
| 2026-05-07 17:25 | 56.39576 | 12.16131 | 32436 ft | 420 kts | 351° |
| 2026-05-07 17:25 | 56.42457 | 12.15335 | 31912 ft | 417 kts | 351° |
| 2026-05-07 17:26 | 56.45319 | 12.14543 | 31393 ft | 414 kts | 351° |
| 2026-05-07 17:26 | 56.48154 | 12.13760 | 30880 ft | 411 kts | 351° |
| 2026-05-07 17:26 | 56.50974 | 12.12977 | 30356 ft | 409 kts | 350° |
| 2026-05-07 17:26 | 56.53776 | 12.12193 | 29809 ft | 406 kts | 350° |
| 2026-05-07 17:27 | 56.56558 | 12.11412 | 29238 ft | 403 kts | 350° |
| 2026-05-07 17:27 | 56.59323 | 12.10637 | 28685 ft | 400 kts | 350° |
| 2026-05-07 17:27 | 56.62059 | 12.09874 | 28158 ft | 396 kts | 350° |
| 2026-05-07 17:27 | 56.64778 | 12.09118 | 27639 ft | 393 kts | 350° |
| 2026-05-07 17:28 | 56.67472 | 12.08365 | 27142 ft | 390 kts | 350° |
| 2026-05-07 17:28 | 56.70146 | 12.07612 | 26647 ft | 388 kts | 349° |
| 2026-05-07 17:28 | 56.72829 | 12.07339 | 26168 ft | 387 kts | 2° |
| 2026-05-07 17:28 | 56.75505 | 12.07693 | 25707 ft | 385 kts | 2° |
| 2026-05-07 17:29 | 56.78167 | 12.08050 | 25257 ft | 383 kts | 2° |
| 2026-05-07 17:29 | 56.80832 | 12.08409 | 24510 ft | 388 kts | 2° |
| 2026-05-07 17:29 | 56.83561 | 12.08777 | 23655 ft | 397 kts | 2° |
| 2026-05-07 17:29 | 56.86322 | 12.09148 | 22934 ft | 397 kts | 2° |
| 2026-05-07 17:30 | 56.89071 | 12.09519 | 22311 ft | 395 kts | 2° |
| 2026-05-07 17:30 | 56.91767 | 12.09884 | 21752 ft | 392 kts | 2° |
| 2026-05-07 17:30 | 56.94474 | 12.10250 | 21212 ft | 389 kts | 2° |
| 2026-05-07 17:30 | 56.97161 | 12.10612 | 20657 ft | 386 kts | 2° |
| 2026-05-07 17:31 | 56.99829 | 12.10972 | 20115 ft | 383 kts | 2° |
| 2026-05-07 17:31 | 57.02474 | 12.11333 | 19569 ft | 380 kts | 2° |
| 2026-05-07 17:31 | 57.05098 | 12.11695 | 19025 ft | 377 kts | 2° |
| 2026-05-07 17:31 | 57.07703 | 12.12056 | 18483 ft | 374 kts | 2° |
| 2026-05-07 17:32 | 57.10288 | 12.12414 | 17896 ft | 371 kts | 2° |
| 2026-05-07 17:32 | 57.12853 | 12.12773 | 17293 ft | 368 kts | 2° |
| 2026-05-07 17:32 | 57.15392 | 12.13126 | 16693 ft | 364 kts | 2° |
| 2026-05-07 17:32 | 57.17061 | 12.13357 | 16305 ft | 362 kts | 2° |
| 2026-05-07 17:33 | 57.20405 | 12.13812 | 15542 ft | 358 kts | 2° |
| 2026-05-07 17:33 | 57.22875 | 12.14151 | 14984 ft | 354 kts | 2° |
| 2026-05-07 17:33 | 57.25323 | 12.14491 | 14433 ft | 351 kts | 2° |
| 2026-05-07 17:33 | 57.27749 | 12.14832 | 13889 ft | 348 kts | 2° |
| 2026-05-07 17:34 | 57.30156 | 12.15173 | 13278 ft | 346 kts | 2° |
| 2026-05-07 17:34 | 57.32543 | 12.15513 | 12683 ft | 343 kts | 2° |
| 2026-05-07 17:34 | 57.34911 | 12.15851 | 12112 ft | 340 kts | 2° |
| 2026-05-07 17:34 | 57.37259 | 12.16184 | 11553 ft | 337 kts | 3° |
| 2026-05-07 17:35 | 57.38806 | 12.16403 | 11185 ft | 336 kts | 3° |
| 2026-05-07 17:35 | 57.41264 | 12.16757 | 10621 ft | 333 kts | 3° |
| 2026-05-07 17:35 | 57.43566 | 12.17082 | 10084 ft | 331 kts | 2° |
| 2026-05-07 17:36 | 57.45858 | 12.17402 | 9530 ft | 328 kts | 3° |
| 2026-05-07 17:36 | 57.48122 | 12.17720 | 8974 ft | 326 kts | 3° |
| 2026-05-07 17:36 | 57.50348 | 12.18036 | 8419 ft | 323 kts | 4° |
| 2026-05-07 17:36 | 57.52582 | 12.18350 | 8121 ft | 322 kts | 4° |
| 2026-05-07 17:37 | 57.54813 | 12.18662 | 7791 ft | 320 kts | 4° |
| 2026-05-07 17:37 | 57.57028 | 12.18977 | 7247 ft | 318 kts | 4° |
| 2026-05-07 17:37 | 57.59221 | 12.19290 | 6921 ft | 310 kts | 4° |
| 2026-05-07 17:37 | 57.61326 | 12.19594 | 6792 ft | 296 kts | 4° |
| 2026-05-07 17:38 | 57.62681 | 12.19790 | 6705 ft | 282 kts | 4° |
| 2026-05-07 17:38 | 57.64577 | 12.20061 | 6496 ft | 267 kts | 5° |
| 2026-05-07 17:38 | 57.66410 | 12.20323 | 6141 ft | 263 kts | 5° |
| 2026-05-07 17:38 | 57.68235 | 12.20584 | 6110 ft | 263 kts | 5° |
| 2026-05-07 17:39 | 57.70061 | 12.20847 | 6111 ft | 263 kts | 5° |
| 2026-05-07 17:39 | 57.71885 | 12.21111 | 6109 ft | 263 kts | 5° |
| 2026-05-07 17:39 | 57.73693 | 12.21370 | 6111 ft | 263 kts | 5° |
| 2026-05-07 17:39 | 57.75546 | 12.21634 | 6110 ft | 264 kts | 4° |
| 2026-05-07 17:40 | 57.77374 | 12.21898 | 6107 ft | 264 kts | 5° |
| 2026-05-07 17:40 | 57.79182 | 12.22160 | 6102 ft | 264 kts | 5° |
| 2026-05-07 17:40 | 57.80976 | 12.22856 | 6096 ft | 264 kts | 20° |
| 2026-05-07 17:40 | 57.82635 | 12.24299 | 5989 ft | 262 kts | 28° |
| 2026-05-07 17:41 | 57.84236 | 12.25908 | 5724 ft | 259 kts | 31° |
| 2026-05-07 17:41 | 57.85578 | 12.28025 | 5571 ft | 246 kts | 51° |
| 2026-05-07 17:41 | 57.86466 | 12.30651 | 5282 ft | 235 kts | 68° |
| 2026-05-07 17:41 | 57.86892 | 12.33576 | 4904 ft | 232 kts | 85° |
| 2026-05-07 17:42 | 57.86828 | 12.36575 | 4503 ft | 233 kts | 104° |
| 2026-05-07 17:42 | 57.86141 | 12.39309 | 4160 ft | 230 kts | 129° |
| 2026-05-07 17:42 | 57.84944 | 12.41274 | 4048 ft | 229 kts | 151° |
| 2026-05-07 17:42 | 57.83443 | 12.42241 | 3892 ft | 230 kts | 173° |
| 2026-05-07 17:43 | 57.81877 | 12.42074 | 3654 ft | 223 kts | 195° |
| 2026-05-07 17:43 | 57.80481 | 12.40971 | 3385 ft | 214 kts | 207° |
| 2026-05-07 17:43 | 57.79173 | 12.39767 | 3105 ft | 205 kts | 207° |
| 2026-05-07 17:43 | 57.77916 | 12.38614 | 2842 ft | 198 kts | 207° |
| 2026-05-07 17:44 | 57.76703 | 12.37502 | 2592 ft | 191 kts | 207° |
| 2026-05-07 17:44 | 57.75516 | 12.36415 | 2321 ft | 188 kts | 208° |
| 2026-05-07 17:44 | 57.74367 | 12.35364 | 2055 ft | 178 kts | 208° |
| 2026-05-07 17:44 | 57.73302 | 12.34391 | 1820 ft | 163 kts | 209° |
| 2026-05-07 17:45 | 57.72320 | 12.33494 | 1620 ft | 151 kts | 208° |
| 2026-05-07 17:45 | 57.71401 | 12.32655 | 1412 ft | 141 kts | 210° |
| 2026-05-07 17:45 | 57.70544 | 12.31872 | 1197 ft | 133 kts | 210° |
| 2026-05-07 17:45 | 57.69716 | 12.31116 | 1027 ft | 131 kts | 211° |
| 2026-05-07 17:46 | 57.68903 | 12.30367 | 842 ft | 129 kts | 211° |
| 2026-05-07 17:46 | 57.68094 | 12.29631 | 613 ft | 129 kts | 210° |
| 2026-05-07 17:46 | 57.67308 | 12.28922 | 516 ft | 116 kts | 209° |
| 2026-05-07 17:46 | 57.66705 | 12.28362 | 512 ft | 73 kts | 206° |
| 2026-05-07 17:47 | 57.66351 | 12.28035 | 511 ft | 42 kts | 206° |
| 2026-05-07 17:47 | 57.66165 | 12.27940 | 509 ft | 19 kts | 160° |
| 2026-05-07 17:47 | 57.66122 | 12.28029 | 509 ft | 1 kts | 116° |
| 2026-05-07 17:47 | 57.66121 | 12.28031 | 509 ft | 0 kts | 116° |
| 2026-05-07 17:48 | 57.66119 | 12.28039 | 509 ft | 2 kts | 116° |
| 2026-05-07 17:48 | 57.66109 | 12.28074 | 509 ft | 0 kts | 116° |
| 2026-05-07 17:49 | 57.66104 | 12.28113 | 509 ft | 6 kts | 93° |
| 2026-05-07 17:49 | 57.66148 | 12.28202 | 510 ft | 13 kts | 29° |
| 2026-05-07 17:50 | 57.66237 | 12.28286 | 510 ft | 6 kts | 26° |
| 2026-05-07 17:50 | 57.66247 | 12.28295 | 510 ft | 3 kts | 26° |
| 2026-05-07 17:50 | 57.66284 | 12.28327 | 511 ft | 8 kts | 25° |
| 2026-05-07 17:50 | 57.66343 | 12.28381 | 511 ft | 11 kts | 26° |
| 2026-05-07 17:51 | 57.66420 | 12.28448 | 511 ft | 14 kts | 25° |
| 2026-05-07 17:51 | 57.66514 | 12.28534 | 512 ft | 16 kts | 26° |
| 2026-05-07 17:51 | 57.66625 | 12.28636 | 512 ft | 19 kts | 26° |
| 2026-05-07 17:51 | 57.66754 | 12.28753 | 513 ft | 22 kts | 26° |
| 2026-05-07 17:52 | 57.66789 | 12.28786 | 513 ft | 0 kts | 26° |
| 2026-05-07 17:52 | 57.66842 | 12.28835 | 513 ft | 23 kts | 26° |
| 2026-05-07 17:52 | 57.67012 | 12.28990 | 514 ft | 25 kts | 26° |
| 2026-05-07 17:52 | 57.67124 | 12.29092 | 514 ft | 16 kts | 26° |
| 2026-05-07 17:53 | 57.67167 | 12.29132 | 514 ft | 7 kts | 26° |
| 2026-05-07 17:53 | 57.67219 | 12.29178 | 515 ft | 10 kts | 26° |
| 2026-05-07 17:53 | 57.67230 | 12.29188 | 515 ft | 2 kts | 26° |
| 2026-05-07 17:53 | 57.67249 | 12.29211 | 515 ft | 4 kts | 39° |
| 2026-05-07 17:54 | 57.67262 | 12.29265 | 515 ft | 0 kts | 99° |
| 2026-05-07 17:54 | 57.67261 | 12.29276 | 515 ft | 3 kts | 101° |
| 2026-05-07 17:54 | 57.67249 | 12.29325 | 516 ft | 3 kts | 126° |
| 2026-05-07 17:54 | 57.67223 | 12.29336 | 516 ft | 5 kts | 186° |
| 2026-05-07 17:55 | 57.67219 | 12.29335 | 516 ft | 0 kts | 187° |
| 2026-05-07 17:57 | 57.67209 | 12.29332 | 516 ft | 3 kts | 189° |
| 2026-05-07 17:57 | 57.67183 | 12.29314 | 516 ft | 6 kts | 205° |
| 2026-05-07 17:58 | 57.67138 | 12.29273 | 516 ft | 9 kts | 206° |
| 2026-05-07 17:58 | 57.67072 | 12.29214 | 516 ft | 12 kts | 205° |
| 2026-05-07 17:58 | 57.67035 | 12.29192 | 516 ft | 3 kts | 184° |
| 2026-05-07 17:58 | 57.67005 | 12.29224 | 516 ft | 6 kts | 131° |
| 2026-05-07 17:59 | 57.66985 | 12.29305 | 516 ft | 2 kts | 113° |
| 2026-05-07 17:59 | 57.66987 | 12.29345 | 516 ft | 5 kts | 69° |
| 2026-05-07 17:59 | 57.67019 | 12.29389 | 516 ft | 7 kts | 27° |
| 2026-05-07 17:59 | 57.67049 | 12.29417 | 516 ft | 2 kts | 26° |
| 2026-05-07 18:00 | 57.67070 | 12.29440 | 516 ft | 5 kts | 42° |
| 2026-05-07 18:00 | 57.67064 | 12.29510 | 516 ft | 7 kts | 120° |
| 2026-05-07 18:00 | 57.67049 | 12.29562 | 516 ft | 1 kts | 117° |
| 2026-05-07 18:00 | 57.67047 | 12.29568 | 516 ft | 0 kts | 117° |
| 2026-05-07 18:04 | 57.67047 | 12.29570 | 516 ft | 1 kts | 117° |
| 2026-05-07 18:04 | 57.67046 | 12.29571 | 516 ft | 0 kts | 117° |